Raleigh, Illinois
Current Conditions -  °F | °C
As of 4:55 AM on Sunday 23 Nov 2014 (Local Time) from KHSB Reporting Station
Scattered Clouds Scattered Clouds  
Wind Chill: 46°   Ceiling: Unl
Heat Index: 47°   Visibility: 10mi
Dew Point: 43°   Wind: 5mph
Humidity: 84%   Direction: 100°E
Pressure: 29.87"   Gusts: NA
Location:  37.83°N, 88.53°W
Report Text: KHSB 231055Z AUTO 10004KT 10SM SCT025 09/06 A2987 RMK AO2 T00860060
Loading
Personal Weather Stations






























Interactive Weather Map New forecast layout! Learn more

10-Day Weather Forecast

Advertisements
Track Severe Weather on mobile